sensor_id;sensor_type;location;lat;lon;timestamp;temperature;humidity
67050;DHT22;53955;52.442;13.284;2022-07-01T00:01:27;25.30;57.00
67050;DHT22;53955;52.442;13.284;2022-07-01T00:03:54;25.20;57.30
67050;DHT22;53955;52.442;13.284;2022-07-01T00:06:20;25.10;57.20
67050;DHT22;53955;52.442;13.284;2022-07-01T00:08:47;25.20;57.60
67050;DHT22;53955;52.442;13.284;2022-07-01T00:11:14;25.10;58.50
67050;DHT22;53955;52.442;13.284;2022-07-01T00:13:41;25.10;58.40
67050;DHT22;53955;52.442;13.284;2022-07-01T00:16:08;24.90;58.80
67050;DHT22;53955;52.442;13.284;2022-07-01T00:18:35;25.00;58.60
67050;DHT22;53955;52.442;13.284;2022-07-01T00:21:02;25.10;58.70
67050;DHT22;53955;52.442;13.284;2022-07-01T00:23:29;25.10;58.60
67050;DHT22;53955;52.442;13.284;2022-07-01T00:25:56;25.10;58.60
67050;DHT22;53955;52.442;13.284;2022-07-01T00:28:23;25.00;58.80
67050;DHT22;53955;52.442;13.284;2022-07-01T00:30:51;25.00;58.80
67050;DHT22;53955;52.442;13.284;2022-07-01T00:33:17;24.90;60.30
67050;DHT22;53955;52.442;13.284;2022-07-01T00:35:45;24.90;60.00
67050;DHT22;53955;52.442;13.284;2022-07-01T00:38:12;24.80;60.60
67050;DHT22;53955;52.442;13.284;2022-07-01T00:40:38;24.70;61.30
67050;DHT22;53955;52.442;13.284;2022-07-01T00:43:05;24.70;61.50
67050;DHT22;53955;52.442;13.284;2022-07-01T00:45:32;24.60;61.50
67050;DHT22;53955;52.442;13.284;2022-07-01T00:47:58;24.60;62.20
67050;DHT22;53955;52.442;13.284;2022-07-01T00:50:26;24.60;62.10
67050;DHT22;53955;52.442;13.284;2022-07-01T00:52:54;24.60;62.40
67050;DHT22;53955;52.442;13.284;2022-07-01T00:55:20;24.40;63.00
67050;DHT22;53955;52.442;13.284;2022-07-01T00:57:47;24.50;62.90
67050;DHT22;53955;52.442;13.284;2022-07-01T01:00:16;24.60;62.50
67050;DHT22;53955;52.442;13.284;2022-07-01T01:02:43;24.50;62.70
67050;DHT22;53955;52.442;13.284;2022-07-01T01:05:10;24.50;63.50
67050;DHT22;53955;52.442;13.284;2022-07-01T01:07:37;24.50;63.50
67050;DHT22;53955;52.442;13.284;2022-07-01T01:10:06;24.60;63.20
67050;DHT22;53955;52.442;13.284;2022-07-01T01:12:32;24.50;63.70
67050;DHT22;53955;52.442;13.284;2022-07-01T01:14:59;24.50;63.40
67050;DHT22;53955;52.442;13.284;2022-07-01T01:17:26;24.40;63.90
67050;DHT22;53955;52.442;13.284;2022-07-01T01:19:53;24.50;64.00
67050;DHT22;53955;52.442;13.284;2022-07-01T01:22:21;24.40;63.80
67050;DHT22;53955;52.442;13.284;2022-07-01T01:24:48;24.40;64.60
67050;DHT22;53955;52.442;13.284;2022-07-01T01:27:15;24.40;63.80
67050;DHT22;53955;52.442;13.284;2022-07-01T01:29:43;24.30;64.30
67050;DHT22;53955;52.442;13.284;2022-07-01T01:32:10;24.30;64.60
67050;DHT22;53955;52.442;13.284;2022-07-01T01:34:38;24.40;64.60
67050;DHT22;53955;52.442;13.284;2022-07-01T01:37:09;24.40;64.40
67050;DHT22;53955;52.442;13.284;2022-07-01T01:39:37;24.30;64.90
67050;DHT22;53955;52.442;13.284;2022-07-01T01:42:04;24.40;64.20
67050;DHT22;53955;52.442;13.284;2022-07-01T01:44:31;24.50;64.00
67050;DHT22;53955;52.442;13.284;2022-07-01T01:46:57;24.40;64.30
67050;DHT22;53955;52.442;13.284;2022-07-01T01:49:24;24.40;64.40
67050;DHT22;53955;52.442;13.284;2022-07-01T01:51:51;24.50;64.80
67050;DHT22;53955;52.442;13.284;2022-07-01T01:54:17;24.40;64.80
67050;DHT22;53955;52.442;13.284;2022-07-01T01:56:45;24.40;64.40
67050;DHT22;53955;52.442;13.284;2022-07-01T01:59:12;24.50;64.80
67050;DHT22;53955;52.442;13.284;2022-07-01T02:01:38;24.70;64.50
67050;DHT22;53955;52.442;13.284;2022-07-01T02:04:05;24.50;64.00
67050;DHT22;53955;52.442;13.284;2022-07-01T02:06:32;24.50;63.90
67050;DHT22;53955;52.442;13.284;2022-07-01T02:08:58;24.60;65.00
67050;DHT22;53955;52.442;13.284;2022-07-01T02:11:25;24.50;64.80
67050;DHT22;53955;52.442;13.284;2022-07-01T02:13:53;24.50;65.20
67050;DHT22;53955;52.442;13.284;2022-07-01T02:16:20;24.50;64.20
67050;DHT22;53955;52.442;13.284;2022-07-01T02:18:47;24.50;65.50
67050;DHT22;53955;52.442;13.284;2022-07-01T02:21:14;24.60;64.80
67050;DHT22;53955;52.442;13.284;2022-07-01T02:23:40;24.50;64.90
67050;DHT22;53955;52.442;13.284;2022-07-01T02:26:07;24.40;64.90
67050;DHT22;53955;52.442;13.284;2022-07-01T02:28:33;24.30;66.70
67050;DHT22;53955;52.442;13.284;2022-07-01T02:31:01;24.20;66.70
67050;DHT22;53955;52.442;13.284;2022-07-01T02:33:28;24.00;66.90
67050;DHT22;53955;52.442;13.284;2022-07-01T02:35:55;24.00;67.70
67050;DHT22;53955;52.442;13.284;2022-07-01T02:38:22;23.90;67.80
67050;DHT22;53955;52.442;13.284;2022-07-01T02:40:48;24.00;68.30
67050;DHT22;53955;52.442;13.284;2022-07-01T02:43:15;23.90;68.70
67050;DHT22;53955;52.442;13.284;2022-07-01T02:45:42;23.70;69.00
67050;DHT22;53955;52.442;13.284;2022-07-01T02:48:10;23.70;69.80
67050;DHT22;53955;52.442;13.284;2022-07-01T02:50:36;23.90;69.30
67050;DHT22;53955;52.442;13.284;2022-07-01T02:53:03;23.90;68.80
67050;DHT22;53955;52.442;13.284;2022-07-01T02:55:29;23.90;68.50
67050;DHT22;53955;52.442;13.284;2022-07-01T02:57:56;24.10;68.40
67050;DHT22;53955;52.442;13.284;2022-07-01T03:00:23;24.20;67.90
67050;DHT22;53955;52.442;13.284;2022-07-01T03:02:50;24.00;68.10
67050;DHT22;53955;52.442;13.284;2022-07-01T03:05:18;24.10;68.20
67050;DHT22;53955;52.442;13.284;2022-07-01T03:07:44;24.00;68.30
67050;DHT22;53955;52.442;13.284;2022-07-01T03:10:11;24.10;68.60
67050;DHT22;53955;52.442;13.284;2022-07-01T03:12:38;24.00;68.90
67050;DHT22;53955;52.442;13.284;2022-07-01T03:15:07;23.80;69.20
67050;DHT22;53955;52.442;13.284;2022-07-01T03:17:35;23.80;69.10
67050;DHT22;53955;52.442;13.284;2022-07-01T03:20:03;23.90;69.60
67050;DHT22;53955;52.442;13.284;2022-07-01T03:22:32;23.90;69.70
67050;DHT22;53955;52.442;13.284;2022-07-01T03:24:59;24.00;68.90
67050;DHT22;53955;52.442;13.284;2022-07-01T03:27:26;24.10;69.00
67050;DHT22;53955;52.442;13.284;2022-07-01T03:29:53;24.20;68.70
67050;DHT22;53955;52.442;13.284;2022-07-01T03:32:20;24.10;68.70
67050;DHT22;53955;52.442;13.284;2022-07-01T03:34:49;24.10;69.20
67050;DHT22;53955;52.442;13.284;2022-07-01T03:37:18;24.10;68.70
67050;DHT22;53955;52.442;13.284;2022-07-01T03:39:46;24.20;69.20
67050;DHT22;53955;52.442;13.284;2022-07-01T03:42:13;24.30;68.20
67050;DHT22;53955;52.442;13.284;2022-07-01T03:44:40;24.40;68.20
67050;DHT22;53955;52.442;13.284;2022-07-01T03:47:07;24.50;68.30
67050;DHT22;53955;52.442;13.284;2022-07-01T03:49:34;24.50;68.00
67050;DHT22;53955;52.442;13.284;2022-07-01T03:52:01;24.70;67.70
67050;DHT22;53955;52.442;13.284;2022-07-01T03:54:27;24.80;67.10
67050;DHT22;53955;52.442;13.284;2022-07-01T03:56:57;24.80;67.20
67050;DHT22;53955;52.442;13.284;2022-07-01T03:59:24;24.80;66.90
67050;DHT22;53955;52.442;13.284;2022-07-01T04:01:51;24.90;66.90
67050;DHT22;53955;52.442;13.284;2022-07-01T04:04:17;24.90;67.00
67050;DHT22;53955;52.442;13.284;2022-07-01T04:06:45;24.80;67.20
67050;DHT22;53955;52.442;13.284;2022-07-01T04:09:13;24.90;66.80
67050;DHT22;53955;52.442;13.284;2022-07-01T04:11:40;24.80;68.50
67050;DHT22;53955;52.442;13.284;2022-07-01T04:14:09;24.80;67.90
67050;DHT22;53955;52.442;13.284;2022-07-01T04:16:36;24.90;67.40
67050;DHT22;53955;52.442;13.284;2022-07-01T04:19:03;25.10;66.90
67050;DHT22;53955;52.442;13.284;2022-07-01T04:21:29;25.30;66.00
67050;DHT22;53955;52.442;13.284;2022-07-01T04:24:25;25.30;66.20
67050;DHT22;53955;52.442;13.284;2022-07-01T04:26:52;25.30;66.30
67050;DHT22;53955;52.442;13.284;2022-07-01T04:29:20;25.50;66.30
67050;DHT22;53955;52.442;13.284;2022-07-01T04:31:47;25.30;66.10
67050;DHT22;53955;52.442;13.284;2022-07-01T04:34:13;25.30;66.90
67050;DHT22;53955;52.442;13.284;2022-07-01T04:36:40;25.20;67.00
67050;DHT22;53955;52.442;13.284;2022-07-01T04:39:07;25.30;67.10
67050;DHT22;53955;52.442;13.284;2022-07-01T04:41:34;25.40;66.30
67050;DHT22;53955;52.442;13.284;2022-07-01T04:44:19;25.50;66.30
67050;DHT22;53955;52.442;13.284;2022-07-01T04:46:46;25.40;67.40
67050;DHT22;53955;52.442;13.284;2022-07-01T04:49:13;25.60;66.60
67050;DHT22;53955;52.442;13.284;2022-07-01T04:51:39;25.90;66.00
67050;DHT22;53955;52.442;13.284;2022-07-01T04:54:06;26.20;64.90
67050;DHT22;53955;52.442;13.284;2022-07-01T04:56:34;26.60;61.20
67050;DHT22;53955;52.442;13.284;2022-07-01T04:59:01;27.20;59.70
67050;DHT22;53955;52.442;13.284;2022-07-01T05:01:30;28.50;53.90
67050;DHT22;53955;52.442;13.284;2022-07-01T05:03:57;29.90;49.20
67050;DHT22;53955;52.442;13.284;2022-07-01T05:06:24;31.10;45.70
67050;DHT22;53955;52.442;13.284;2022-07-01T05:08:50;31.90;42.60
67050;DHT22;53955;52.442;13.284;2022-07-01T05:11:17;32.30;42.10
67050;DHT22;53955;52.442;13.284;2022-07-01T05:13:44;33.20;40.00
67050;DHT22;53955;52.442;13.284;2022-07-01T05:16:11;34.00;37.70
67050;DHT22;53955;52.442;13.284;2022-07-01T05:18:39;34.20;37.10
67050;DHT22;53955;52.442;13.284;2022-07-01T05:21:24;33.80;37.50
67050;DHT22;53955;52.442;13.284;2022-07-01T05:24:08;32.90;39.30
67050;DHT22;53955;52.442;13.284;2022-07-01T05:26:34;32.20;40.60
67050;DHT22;53955;52.442;13.284;2022-07-01T05:29:01;31.20;43.60
67050;DHT22;53955;52.442;13.284;2022-07-01T05:31:28;30.40;45.50
67050;DHT22;53955;52.442;13.284;2022-07-01T05:33:56;29.60;47.30
67050;DHT22;53955;52.442;13.284;2022-07-01T05:36:23;29.20;49.40
67050;DHT22;53955;52.442;13.284;2022-07-01T05:38:49;28.60;52.20
67050;DHT22;53955;52.442;13.284;2022-07-01T05:41:16;28.30;52.60
67050;DHT22;53955;52.442;13.284;2022-07-01T05:43:42;28.10;53.60
67050;DHT22;53955;52.442;13.284;2022-07-01T05:46:09;28.00;53.80
67050;DHT22;53955;52.442;13.284;2022-07-01T05:48:35;27.90;55.00
67050;DHT22;53955;52.442;13.284;2022-07-01T05:51:03;27.60;54.70
67050;DHT22;53955;52.442;13.284;2022-07-01T05:53:30;27.50;55.20
67050;DHT22;53955;52.442;13.284;2022-07-01T05:55:56;27.50;56.30
67050;DHT22;53955;52.442;13.284;2022-07-01T05:58:23;27.30;56.60
67050;DHT22;53955;52.442;13.284;2022-07-01T06:00:50;27.30;56.40
67050;DHT22;53955;52.442;13.284;2022-07-01T06:03:16;27.20;56.60
67050;DHT22;53955;52.442;13.284;2022-07-01T06:05:43;27.30;56.40
67050;DHT22;53955;52.442;13.284;2022-07-01T06:08:11;27.30;56.50
67050;DHT22;53955;52.442;13.284;2022-07-01T06:10:37;27.30;56.00
67050;DHT22;53955;52.442;13.284;2022-07-01T06:13:04;27.60;55.70
67050;DHT22;53955;52.442;13.284;2022-07-01T06:15:31;28.00;54.40
67050;DHT22;53955;52.442;13.284;2022-07-01T06:17:58;28.40;52.40
67050;DHT22;53955;52.442;13.284;2022-07-01T06:20:24;28.50;53.30
67050;DHT22;53955;52.442;13.284;2022-07-01T06:22:51;28.30;53.20
67050;DHT22;53955;52.442;13.284;2022-07-01T06:25:19;28.20;53.60
67050;DHT22;53955;52.442;13.284;2022-07-01T06:27:46;28.10;54.40
67050;DHT22;53955;52.442;13.284;2022-07-01T06:30:13;27.90;54.40
67050;DHT22;53955;52.442;13.284;2022-07-01T06:32:40;27.90;54.60
67050;DHT22;53955;52.442;13.284;2022-07-01T06:35:08;27.80;54.70
67050;DHT22;53955;52.442;13.284;2022-07-01T06:37:34;27.70;55.70
67050;DHT22;53955;52.442;13.284;2022-07-01T06:40:02;27.70;55.50
67050;DHT22;53955;52.442;13.284;2022-07-01T06:42:30;27.90;56.00
67050;DHT22;53955;52.442;13.284;2022-07-01T06:44:57;28.30;54.40
67050;DHT22;53955;52.442;13.284;2022-07-01T06:47:24;28.40;54.30
67050;DHT22;53955;52.442;13.284;2022-07-01T06:49:51;28.40;53.70
67050;DHT22;53955;52.442;13.284;2022-07-01T06:52:17;28.40;52.90
67050;DHT22;53955;52.442;13.284;2022-07-01T06:54:44;28.50;53.40
67050;DHT22;53955;52.442;13.284;2022-07-01T06:57:10;29.10;51.60
67050;DHT22;53955;52.442;13.284;2022-07-01T06:59:38;29.60;49.20
67050;DHT22;53955;52.442;13.284;2022-07-01T07:02:06;29.80;48.50
67050;DHT22;53955;52.442;13.284;2022-07-01T07:04:33;29.80;48.10
67050;DHT22;53955;52.442;13.284;2022-07-01T07:07:00;29.80;47.10
67050;DHT22;53955;52.442;13.284;2022-07-01T07:09:26;29.50;47.80
67050;DHT22;53955;52.442;13.284;2022-07-01T07:11:53;29.40;45.60
67050;DHT22;53955;52.442;13.284;2022-07-01T07:14:20;29.30;44.90
67050;DHT22;53955;52.442;13.284;2022-07-01T07:16:48;29.30;45.60
67050;DHT22;53955;52.442;13.284;2022-07-01T07:19:16;29.20;45.40
67050;DHT22;53955;52.442;13.284;2022-07-01T07:21:43;29.40;45.30
67050;DHT22;53955;52.442;13.284;2022-07-01T07:24:09;29.40;43.80
67050;DHT22;53955;52.442;13.284;2022-07-01T07:26:36;29.30;44.20
67050;DHT22;53955;52.442;13.284;2022-07-01T07:29:02;29.20;44.20
67050;DHT22;53955;52.442;13.284;2022-07-01T07:31:29;29.30;43.40
67050;DHT22;53955;52.442;13.284;2022-07-01T07:33:57;29.40;44.10
67050;DHT22;53955;52.442;13.284;2022-07-01T07:36:24;29.50;43.20
67050;DHT22;53955;52.442;13.284;2022-07-01T07:38:50;29.60;43.80
67050;DHT22;53955;52.442;13.284;2022-07-01T07:41:17;30.20;42.70
67050;DHT22;53955;52.442;13.284;2022-07-01T07:43:43;30.80;42.00
67050;DHT22;53955;52.442;13.284;2022-07-01T07:46:10;31.10;40.90
67050;DHT22;53955;52.442;13.284;2022-07-01T07:48:36;31.20;40.10
67050;DHT22;53955;52.442;13.284;2022-07-01T07:51:04;31.40;40.70
67050;DHT22;53955;52.442;13.284;2022-07-01T07:53:31;31.70;39.60
67050;DHT22;53955;52.442;13.284;2022-07-01T07:55:57;31.90;38.20
67050;DHT22;53955;52.442;13.284;2022-07-01T07:58:24;31.90;38.20
67050;DHT22;53955;52.442;13.284;2022-07-01T08:00:50;32.00;37.40
67050;DHT22;53955;52.442;13.284;2022-07-01T08:03:17;32.10;36.60
67050;DHT22;53955;52.442;13.284;2022-07-01T08:05:43;32.00;37.10
67050;DHT22;53955;52.442;13.284;2022-07-01T08:08:11;31.90;37.00
67050;DHT22;53955;52.442;13.284;2022-07-01T08:10:38;31.80;38.30
67050;DHT22;53955;52.442;13.284;2022-07-01T08:13:04;31.80;38.10
67050;DHT22;53955;52.442;13.284;2022-07-01T08:15:31;31.80;37.80
67050;DHT22;53955;52.442;13.284;2022-07-01T08:17:58;32.00;36.90
67050;DHT22;53955;52.442;13.284;2022-07-01T08:20:25;31.80;37.60
67050;DHT22;53955;52.442;13.284;2022-07-01T08:22:51;32.00;37.20
67050;DHT22;53955;52.442;13.284;2022-07-01T08:25:19;31.90;36.20
67050;DHT22;53955;52.442;13.284;2022-07-01T08:27:46;32.10;36.10
67050;DHT22;53955;52.442;13.284;2022-07-01T08:30:12;32.20;34.40
67050;DHT22;53955;52.442;13.284;2022-07-01T08:32:39;32.00;35.20
67050;DHT22;53955;52.442;13.284;2022-07-01T08:35:06;32.00;34.40
67050;DHT22;53955;52.442;13.284;2022-07-01T08:37:33;32.20;34.00
67050;DHT22;53955;52.442;13.284;2022-07-01T08:39:59;32.20;33.90
67050;DHT22;53955;52.442;13.284;2022-07-01T08:42:27;32.40;34.80
67050;DHT22;53955;52.442;13.284;2022-07-01T08:44:54;32.40;34.00
67050;DHT22;53955;52.442;13.284;2022-07-01T08:47:20;32.50;33.70
67050;DHT22;53955;52.442;13.284;2022-07-01T08:49:47;32.60;32.90
67050;DHT22;53955;52.442;13.284;2022-07-01T08:52:14;32.50;33.10
67050;DHT22;53955;52.442;13.284;2022-07-01T08:54:40;32.40;33.20
67050;DHT22;53955;52.442;13.284;2022-07-01T08:57:07;32.30;34.00
67050;DHT22;53955;52.442;13.284;2022-07-01T08:59:35;32.20;34.30
67050;DHT22;53955;52.442;13.284;2022-07-01T09:02:04;32.10;34.00
67050;DHT22;53955;52.442;13.284;2022-07-01T09:04:32;31.80;35.50
67050;DHT22;53955;52.442;13.284;2022-07-01T09:07:03;31.30;37.10
67050;DHT22;53955;52.442;13.284;2022-07-01T09:09:34;30.80;38.50
67050;DHT22;53955;52.442;13.284;2022-07-01T09:12:00;30.10;39.50
67050;DHT22;53955;52.442;13.284;2022-07-01T09:14:28;29.50;40.20
67050;DHT22;53955;52.442;13.284;2022-07-01T09:16:58;29.00;42.50
67050;DHT22;53955;52.442;13.284;2022-07-01T09:19:26;28.60;43.30
67050;DHT22;53955;52.442;13.284;2022-07-01T09:21:54;28.30;44.10
67050;DHT22;53955;52.442;13.284;2022-07-01T09:24:27;28.10;43.40
67050;DHT22;53955;52.442;13.284;2022-07-01T09:26:55;27.60;44.20
67050;DHT22;53955;52.442;13.284;2022-07-01T09:29:26;27.20;44.00
67050;DHT22;53955;52.442;13.284;2022-07-01T09:31:53;27.00;44.80
67050;DHT22;53955;52.442;13.284;2022-07-01T09:34:20;26.70;45.10
67050;DHT22;53955;52.442;13.284;2022-07-01T09:36:52;26.40;45.70
67050;DHT22;53955;52.442;13.284;2022-07-01T09:39:19;26.20;47.70
67050;DHT22;53955;52.442;13.284;2022-07-01T09:41:46;26.00;48.90
67050;DHT22;53955;52.442;13.284;2022-07-01T09:44:12;25.80;49.70
67050;DHT22;53955;52.442;13.284;2022-07-01T09:46:51;25.50;50.20
67050;DHT22;53955;52.442;13.284;2022-07-01T09:49:18;25.50;50.40
67050;DHT22;53955;52.442;13.284;2022-07-01T09:51:46;25.30;50.70
67050;DHT22;53955;52.442;13.284;2022-07-01T09:54:14;25.20;50.70
67050;DHT22;53955;52.442;13.284;2022-07-01T09:56:41;25.30;51.90
67050;DHT22;53955;52.442;13.284;2022-07-01T09:59:08;25.10;51.10
67050;DHT22;53955;52.442;13.284;2022-07-01T10:01:36;25.00;51.70
67050;DHT22;53955;52.442;13.284;2022-07-01T10:04:06;25.00;51.90
67050;DHT22;53955;52.442;13.284;2022-07-01T10:06:51;24.90;51.90
67050;DHT22;53955;52.442;13.284;2022-07-01T10:09:32;24.90;51.60
67050;DHT22;53955;52.442;13.284;2022-07-01T10:12:24;24.90;52.00
67050;DHT22;53955;52.442;13.284;2022-07-01T10:14:56;24.80;52.50
67050;DHT22;53955;52.442;13.284;2022-07-01T10:17:28;24.70;52.10
67050;DHT22;53955;52.442;13.284;2022-07-01T10:19:56;24.60;52.80
67050;DHT22;53955;52.442;13.284;2022-07-01T10:22:28;24.50;52.50
67050;DHT22;53955;52.442;13.284;2022-07-01T10:24:56;24.30;53.10
67050;DHT22;53955;52.442;13.284;2022-07-01T10:27:23;24.40;52.90
67050;DHT22;53955;52.442;13.284;2022-07-01T10:30:13;24.50;52.70
67050;DHT22;53955;52.442;13.284;2022-07-01T10:32:47;24.40;53.00
67050;DHT22;53955;52.442;13.284;2022-07-01T10:35:14;24.40;53.00
67050;DHT22;53955;52.442;13.284;2022-07-01T10:37:59;24.40;53.30
67050;DHT22;53955;52.442;13.284;2022-07-01T10:40:42;24.40;53.20
67050;DHT22;53955;52.442;13.284;2022-07-01T10:43:15;24.20;52.80
67050;DHT22;53955;52.442;13.284;2022-07-01T10:45:43;24.00;53.80
67050;DHT22;53955;52.442;13.284;2022-07-01T10:48:20;23.90;53.70
67050;DHT22;53955;52.442;13.284;2022-07-01T10:50:48;23.90;54.60
67050;DHT22;53955;52.442;13.284;2022-07-01T10:53:16;23.80;55.40
67050;DHT22;53955;52.442;13.284;2022-07-01T10:55:45;23.80;56.70
67050;DHT22;53955;52.442;13.284;2022-07-01T10:58:12;23.70;57.50
67050;DHT22;53955;52.442;13.284;2022-07-01T11:00:43;23.60;57.00
67050;DHT22;53955;52.442;13.284;2022-07-01T11:03:19;23.70;58.70
67050;DHT22;53955;52.442;13.284;2022-07-01T11:05:48;23.60;58.60
67050;DHT22;53955;52.442;13.284;2022-07-01T11:08:18;23.40;61.30
67050;DHT22;53955;52.442;13.284;2022-07-01T11:10:48;23.40;62.10
67050;DHT22;53955;52.442;13.284;2022-07-01T11:13:15;23.40;63.20
67050;DHT22;53955;52.442;13.284;2022-07-01T11:15:44;23.60;62.30
67050;DHT22;53955;52.442;13.284;2022-07-01T11:18:13;23.50;62.60
67050;DHT22;53955;52.442;13.284;2022-07-01T11:20:40;23.60;58.60
67050;DHT22;53955;52.442;13.284;2022-07-01T11:23:06;23.50;60.90
67050;DHT22;53955;52.442;13.284;2022-07-01T11:25:34;23.40;61.70
67050;DHT22;53955;52.442;13.284;2022-07-01T11:28:01;23.30;62.70
67050;DHT22;53955;52.442;13.284;2022-07-01T11:30:27;23.30;64.20
67050;DHT22;53955;52.442;13.284;2022-07-01T11:32:56;23.30;64.90
67050;DHT22;53955;52.442;13.284;2022-07-01T11:35:26;23.40;65.10
67050;DHT22;53955;52.442;13.284;2022-07-01T11:38:12;23.30;64.60
67050;DHT22;53955;52.442;13.284;2022-07-01T11:40:59;23.50;63.90
67050;DHT22;53955;52.442;13.284;2022-07-01T11:43:28;23.50;63.10
67050;DHT22;53955;52.442;13.284;2022-07-01T11:45:57;23.60;62.30
67050;DHT22;53955;52.442;13.284;2022-07-01T11:48:46;23.70;60.90
67050;DHT22;53955;52.442;13.284;2022-07-01T11:51:16;23.80;58.90
67050;DHT22;53955;52.442;13.284;2022-07-01T11:53:45;23.90;59.20
67050;DHT22;53955;52.442;13.284;2022-07-01T11:56:13;23.90;57.50
67050;DHT22;53955;52.442;13.284;2022-07-01T11:58:44;23.80;58.70
67050;DHT22;53955;52.442;13.284;2022-07-01T12:01:11;23.80;58.30
67050;DHT22;53955;52.442;13.284;2022-07-01T12:03:38;23.80;59.60
67050;DHT22;53955;52.442;13.284;2022-07-01T12:06:04;23.90;58.00
67050;DHT22;53955;52.442;13.284;2022-07-01T12:08:31;24.00;58.70
67050;DHT22;53955;52.442;13.284;2022-07-01T12:10:58;24.30;57.70
67050;DHT22;53955;52.442;13.284;2022-07-01T12:13:27;24.50;57.60
67050;DHT22;53955;52.442;13.284;2022-07-01T12:15:53;24.80;56.50
67050;DHT22;53955;52.442;13.284;2022-07-01T12:18:20;25.10;54.70
67050;DHT22;53955;52.442;13.284;2022-07-01T12:20:50;25.00;55.40
67050;DHT22;53955;52.442;13.284;2022-07-01T12:23:19;25.00;54.90
67050;DHT22;53955;52.442;13.284;2022-07-01T12:25:50;24.90;55.20
67050;DHT22;53955;52.442;13.284;2022-07-01T12:28:29;24.90;54.10
67050;DHT22;53955;52.442;13.284;2022-07-01T12:31:04;24.90;55.40
67050;DHT22;53955;52.442;13.284;2022-07-01T12:33:34;24.60;55.40
67050;DHT22;53955;52.442;13.284;2022-07-01T12:36:02;24.60;55.40
67050;DHT22;53955;52.442;13.284;2022-07-01T12:38:29;24.50;55.30
67050;DHT22;53955;52.442;13.284;2022-07-01T12:40:56;24.40;55.90
67050;DHT22;53955;52.442;13.284;2022-07-01T12:43:24;24.30;55.80
67050;DHT22;53955;52.442;13.284;2022-07-01T12:45:52;24.40;55.10
67050;DHT22;53955;52.442;13.284;2022-07-01T12:48:19;24.20;55.40
67050;DHT22;53955;52.442;13.284;2022-07-01T12:50:45;24.20;55.50
67050;DHT22;53955;52.442;13.284;2022-07-01T12:53:18;24.20;56.60
67050;DHT22;53955;52.442;13.284;2022-07-01T12:55:46;24.30;56.60
67050;DHT22;53955;52.442;13.284;2022-07-01T12:58:16;24.20;55.40
67050;DHT22;53955;52.442;13.284;2022-07-01T13:00:45;24.20;55.30
67050;DHT22;53955;52.442;13.284;2022-07-01T13:03:13;24.20;55.50
67050;DHT22;53955;52.442;13.284;2022-07-01T13:05:40;24.20;54.60
67050;DHT22;53955;52.442;13.284;2022-07-01T13:08:09;24.10;55.00
67050;DHT22;53955;52.442;13.284;2022-07-01T13:10:35;23.90;54.90
67050;DHT22;53955;52.442;13.284;2022-07-01T13:13:02;23.90;56.40
67050;DHT22;53955;52.442;13.284;2022-07-01T13:15:29;23.80;55.30
67050;DHT22;53955;52.442;13.284;2022-07-01T13:17:56;23.70;55.90
67050;DHT22;53955;52.442;13.284;2022-07-01T13:20:24;23.60;57.40
67050;DHT22;53955;52.442;13.284;2022-07-01T13:22:51;23.60;55.90
67050;DHT22;53955;52.442;13.284;2022-07-01T13:25:17;23.70;56.30
67050;DHT22;53955;52.442;13.284;2022-07-01T13:27:44;23.60;58.30
67050;DHT22;53955;52.442;13.284;2022-07-01T13:30:12;23.60;57.80
67050;DHT22;53955;52.442;13.284;2022-07-01T13:32:39;23.50;58.30
67050;DHT22;53955;52.442;13.284;2022-07-01T13:35:07;23.50;58.70
67050;DHT22;53955;52.442;13.284;2022-07-01T13:37:35;23.50;58.90
67050;DHT22;53955;52.442;13.284;2022-07-01T13:40:02;23.50;58.10
67050;DHT22;53955;52.442;13.284;2022-07-01T13:42:29;23.40;58.20
67050;DHT22;53955;52.442;13.284;2022-07-01T13:44:56;23.40;58.70
67050;DHT22;53955;52.442;13.284;2022-07-01T13:47:23;23.40;57.20
67050;DHT22;53955;52.442;13.284;2022-07-01T13:49:50;23.30;58.10
67050;DHT22;53955;52.442;13.284;2022-07-01T13:52:16;23.30;58.50
67050;DHT22;53955;52.442;13.284;2022-07-01T13:54:44;23.30;57.80
67050;DHT22;53955;52.442;13.284;2022-07-01T13:57:11;23.20;58.30
67050;DHT22;53955;52.442;13.284;2022-07-01T13:59:37;23.20;57.90
67050;DHT22;53955;52.442;13.284;2022-07-01T14:02:04;23.30;58.40
67050;DHT22;53955;52.442;13.284;2022-07-01T14:04:31;23.20;58.10
67050;DHT22;53955;52.442;13.284;2022-07-01T14:06:58;23.20;58.20
67050;DHT22;53955;52.442;13.284;2022-07-01T14:09:24;23.00;58.10
67050;DHT22;53955;52.442;13.284;2022-07-01T14:11:52;23.10;57.20
67050;DHT22;53955;52.442;13.284;2022-07-01T14:14:19;22.90;58.40
67050;DHT22;53955;52.442;13.284;2022-07-01T14:16:45;22.90;58.50
67050;DHT22;53955;52.442;13.284;2022-07-01T14:19:12;22.90;58.40
67050;DHT22;53955;52.442;13.284;2022-07-01T14:21:39;22.90;58.80
67050;DHT22;53955;52.442;13.284;2022-07-01T14:24:06;23.00;58.50
67050;DHT22;53955;52.442;13.284;2022-07-01T14:26:32;23.00;58.50
67050;DHT22;53955;52.442;13.284;2022-07-01T14:29:00;23.30;58.50
67050;DHT22;53955;52.442;13.284;2022-07-01T14:31:27;23.40;58.20
67050;DHT22;53955;52.442;13.284;2022-07-01T14:33:53;23.40;59.20
67050;DHT22;53955;52.442;13.284;2022-07-01T14:36:20;23.40;58.90
67050;DHT22;53955;52.442;13.284;2022-07-01T14:38:46;23.30;59.50
67050;DHT22;53955;52.442;13.284;2022-07-01T14:41:13;23.40;59.60
67050;DHT22;53955;52.442;13.284;2022-07-01T14:43:39;23.30;59.20
67050;DHT22;53955;52.442;13.284;2022-07-01T14:46:07;23.20;60.50
67050;DHT22;53955;52.442;13.284;2022-07-01T14:48:36;23.20;60.90
67050;DHT22;53955;52.442;13.284;2022-07-01T14:51:04;23.20;61.30
67050;DHT22;53955;52.442;13.284;2022-07-01T14:53:31;23.30;60.40
67050;DHT22;53955;52.442;13.284;2022-07-01T14:55:58;23.20;60.50
67050;DHT22;53955;52.442;13.284;2022-07-01T14:58:24;23.10;60.50
67050;DHT22;53955;52.442;13.284;2022-07-01T15:00:51;23.00;61.00
67050;DHT22;53955;52.442;13.284;2022-07-01T15:03:19;23.00;60.50
67050;DHT22;53955;52.442;13.284;2022-07-01T15:05:46;22.90;60.50
67050;DHT22;53955;52.442;13.284;2022-07-01T15:08:12;22.80;62.10
67050;DHT22;53955;52.442;13.284;2022-07-01T15:10:39;22.80;62.20
67050;DHT22;53955;52.442;13.284;2022-07-01T15:13:06;22.90;62.20
67050;DHT22;53955;52.442;13.284;2022-07-01T15:15:32;22.90;60.60
67050;DHT22;53955;52.442;13.284;2022-07-01T15:17:59;23.00;61.00
67050;DHT22;53955;52.442;13.284;2022-07-01T15:20:27;22.90;62.50